Wilson Gaeta — 8PTS — position and weather

sailwx.info

Track history (hours):
 
Tides and Currents Weather Stations Pressure Air Temp Water Temp Dewpoint Dewpoint Depression Visibility Wind Speed Wind Dir Waves Ship Positions

Wilson Gaeta

Last reported at 2016-Jun-24 11:13 UTC. Time now 2016-Jun-27 02:27 UTC.
Position N 55°34' E 017°46'.

Length 88 m; draft 3.9 m.

Type: Cargo ship. MMSI: 314237000.

Date/timePositionNaut miles runAvg speedWind from/ knotsBaromVisibWave heightAir tempDewpointWater temp
2016-Jun-24 11:13N 55°34' E 017°46'710.0
2016-Jun-24 10:33N 55°33' E 017°34'6210.4
2016-Jun-24 04:33N 55°27' E 015°45'10 9.9
2016-Jun-24 03:33N 55°26' E 015°28'10 9.6
2016-Jun-24 02:33N 55°25' E 015°11'10 9.7
2016-Jun-24 01:33N 55°24' E 014°54'10 9.8
2016-Jun-24 00:33N 55°22' E 014°37'1010.1
2016-Jun-23 23:33N 55°15' E 014°25'9 9.1
2016-Jun-23 22:33N 55°10' E 014°11'10 9.6
2016-Jun-23 21:33N 55°10' E 013°54'9 9.4
2016-Jun-23 20:33N 55°12' E 013°38'9 9.2
2016-Jun-23 19:33N 55°13' E 013°22'9 9.1
2016-Jun-23 18:33N 55°14' E 013°06'9 9.1
2016-Jun-23 17:33N 55°15' E 012°50'9 9.0
2016-Jun-23 16:33N 55°19' E 012°36'9 9.1
2016-Jun-23 15:33N 55°25' E 012°24'7 6.6
2016-Jun-23 14:28N 55°27' E 012°12'0 0.0
2016-Jun-23 13:31N 55°27' E 012°12'0 0.0
2016-Jun-23 12:28N 55°27' E 012°12'0 0.0
2016-Jun-23 11:31N 55°27' E 012°12'0 0.0
2016-Jun-23 10:28N 55°27' E 012°12'0 0.0
2016-Jun-23 09:31N 55°27' E 012°12'0 0.0
2016-Jun-23 08:31N 55°27' E 012°12'0 0.0
2016-Jun-23 07:31N 55°27' E 012°12'0 0.0
2016-Jun-23 05:31N 55°27' E 012°12'0 0.0
2016-Jun-23 04:31N 55°27' E 012°12'0 0.0
2016-Jun-23 03:31N 55°27' E 012°12'0 0.0
2016-Jun-23 02:31N 55°27' E 012°12'0 0.4
2016-Jun-23 01:33N 55°27' E 012°12'8 7.6
2016-Jun-23 00:33N 55°29' E 012°25'9 9.2
2016-Jun-22 23:33N 55°31' E 012°41'8 7.7
2016-Jun-22 22:33N 55°39' E 012°41'9 8.5
2016-Jun-22 21:33N 55°48' E 012°41'9 8.6
2016-Jun-22 20:33N 55°56' E 012°38'8 8.0
2016-Jun-22 19:33N 56°04' E 012°37'9 8.9
2016-Jun-22 18:33N 56°09' E 012°24'10 9.5
2016-Jun-22 17:33N 56°14' E 012°09'8 8.1
2016-Jun-22 16:32N 56°21' E 012°02'10 9.1
2016-Jun-22 15:27N 56°31' E 011°57'8 9.1
2016-Jun-22 14:33N 56°39' E 011°54'9 9.1
2016-Jun-22 13:34N 56°47' E 011°50'9 9.5
2016-Jun-22 12:34N 56°56' E 011°44'9 8.8
2016-Jun-22 11:33N 57°05' E 011°39'9 8.5
2016-Jun-22 10:33N 57°13' E 011°34'9 9.1
2016-Jun-22 09:33N 57°21' E 011°28'9 8.9
2016-Jun-22 08:33N 57°29' E 011°19'9 8.9
2016-Jun-22 07:33N 57°33' E 011°04'9 9.3
2016-Jun-22 06:33N 57°37' E 010°48'8 8.3
2016-Jun-22 05:33N 57°42' E 010°36'0 0.1
2016-Jun-22 04:12N 57°42' E 010°36'0 0.0
2016-Jun-22 03:27N 57°42' E 010°36'0 0.2
2016-Jun-22 02:33N 57°42' E 010°36'6 5.6
2016-Jun-22 01:33N 57°47' E 010°40'6510.0
2016-Jun-21 19:06N 57°50' E 008°39'5 9.1
2016-Jun-21 18:33N 57°51' E 008°29'9 9.1
2016-Jun-21 17:33N 57°51' E 008°12'9 9.0
2016-Jun-21 16:32N 57°52' E 007°55'17 8.6
2016-Jun-21 14:31N 57°53' E 007°22'8 8.6
2016-Jun-21 13:33N 57°55' E 007°07'9 8.5
2016-Jun-21 12:33N 57°56' E 006°51'9 8.8
2016-Jun-21 11:33N 57°58' E 006°35'9 8.8
2016-Jun-21 10:33N 58°04' E 006°23'9 8.7
2016-Jun-21 09:33N 58°10' E 006°11'9 8.6
2016-Jun-21 08:33N 58°16' E 005°59'9 9.1
2016-Jun-21 07:33N 58°22' E 005°47'18 9.3
2016-Jun-21 05:33N 58°37' E 005°26'9 8.9
2016-Jun-21 04:33N 58°45' E 005°17'9 8.8
2016-Jun-21 03:33N 58°52' E 005°07'9 8.5
2016-Jun-21 02:33N 58°60' E 004°60'8 8.4
2016-Jun-21 01:33N 59°07' E 004°51'8 8.0
2016-Jun-21 00:33N 59°14' E 004°43'  
2016-Jun-16 21:23N 59°07' E 004°33'810.0
2016-Jun-16 20:34N 59°06' E 004°49'1110.6
2016-Jun-16 19:34N 59°07' E 005°10'8 8.4
2016-Jun-16 18:34N 59°13' E 005°21'3 3.0
2016-Jun-16 17:31N 59°14' E 005°27'0 0.0
2016-Jun-16 16:31N 59°14' E 005°27'0 0.0
2016-Jun-16 15:31N 59°14' E 005°27'0 0.0
2016-Jun-16 14:31N 59°14' E 005°27'0 0.0
2016-Jun-16 13:31N 59°14' E 005°27'0 0.0
2016-Jun-16 12:31N 59°14' E 005°27'0 0.0
2016-Jun-16 11:31N 59°14' E 005°27'0 0.0
2016-Jun-16 10:31N 59°14' E 005°27'0 0.0
2016-Jun-16 09:31N 59°14' E 005°27'0 0.0
2016-Jun-16 08:31N 59°14' E 005°27'0 0.0
2016-Jun-16 07:31N 59°14' E 005°27'0 0.0
2016-Jun-16 06:31N 59°14' E 005°27'0 0.0
2016-Jun-16 05:31N 59°14' E 005°27'0 0.0
2016-Jun-16 04:31N 59°14' E 005°27'0 0.0
2016-Jun-16 03:31N 59°14' E 005°27'0 0.0
2016-Jun-16 02:31N 59°14' E 005°27'0 0.0
2016-Jun-16 01:31N 59°14' E 005°27'0 0.0
2016-Jun-16 00:31N 59°14' E 005°27'0 0.0
2016-Jun-15 23:31N 59°14' E 005°27'0 0.0
2016-Jun-15 22:31N 59°14' E 005°27'0 0.0
2016-Jun-15 21:31N 59°14' E 005°27'0 0.0
2016-Jun-15 20:31N 59°14' E 005°27'0 0.0
2016-Jun-15 19:31N 59°14' E 005°27'0 0.0
2016-Jun-15 18:31N 59°14' E 005°27'0 0.0
2016-Jun-15 17:31N 59°14' E 005°27'0 0.0
2016-Jun-15 16:31N 59°14' E 005°27'0 0.0
2016-Jun-15 15:31N 59°14' E 005°27'0 0.0
2016-Jun-15 14:31N 59°14' E 005°27'0 0.0
2016-Jun-15 13:31N 59°14' E 005°27'0 0.0
2016-Jun-15 12:31N 59°14' E 005°27'0 0.0
2016-Jun-15 11:31N 59°14' E 005°27'0 0.0
2016-Jun-15 10:31N 59°14' E 005°27'0 0.0
2016-Jun-15 09:31N 59°14' E 005°27'0 0.0
2016-Jun-15 08:31N 59°14' E 005°27'0 0.0
2016-Jun-15 07:31N 59°14' E 005°27'0 0.0
2016-Jun-15 06:31N 59°14' E 005°27'0 0.0
2016-Jun-15 05:31N 59°14' E 005°27'0 0.0
2016-Jun-15 04:31N 59°14' E 005°27'0 0.0
2016-Jun-15 03:31N 59°14' E 005°27'0 0.0
2016-Jun-15 02:31N 59°14' E 005°27'0 0.0
2016-Jun-15 01:31N 59°14' E 005°27'0 0.0
2016-Jun-15 00:31N 59°14' E 005°27'0 0.0
2016-Jun-14 23:28N 59°14' E 005°27'0 0.0
2016-Jun-14 22:31N 59°14' E 005°27'0 0.0
2016-Jun-14 21:31N 59°14' E 005°27'0 0.0
2016-Jun-14 20:31N 59°14' E 005°27'0 0.0
2016-Jun-14 19:31N 59°14' E 005°27'0 0.0
2016-Jun-14 18:31N 59°14' E 005°27'0 0.0
2016-Jun-14 17:31N 59°14' E 005°27'0 0.0
2016-Jun-14 16:31N 59°14' E 005°27'0 0.0
2016-Jun-14 15:31N 59°14' E 005°27'0 0.0
2016-Jun-14 14:31N 59°14' E 005°27'0 0.0
2016-Jun-14 13:31N 59°14' E 005°27'0 0.0
2016-Jun-14 12:31N 59°14' E 005°27'0 0.0
2016-Jun-14 11:31N 59°14' E 005°27'  
Track history (hours):
 
Tides and Currents Weather Stations Pressure Air Temp Water Temp Dewpoint Dewpoint Depression Visibility Wind Speed Wind Dir Waves Ship Positions

Wilson Gaeta

Last reported at 2016-Jun-24 11:13 UTC. Time now 2016-Jun-27 02:27 UTC.
Position N 55°34' E 017°46'.

Length 88 m; draft 3.9 m.

Type: Cargo ship. MMSI: 314237000.

Date/timePositionNaut miles runAvg speedWind from/ knotsBaromVisibWave heightAir tempDewpointWater temp
2016-Jun-24 11:13N 55°34' E 017°46'710.0
2016-Jun-24 10:33N 55°33' E 017°34'6210.4
2016-Jun-24 04:33N 55°27' E 015°45'10 9.9
2016-Jun-24 03:33N 55°26' E 015°28'10 9.6
2016-Jun-24 02:33N 55°25' E 015°11'10 9.7
2016-Jun-24 01:33N 55°24' E 014°54'10 9.8
2016-Jun-24 00:33N 55°22' E 014°37'1010.1
2016-Jun-23 23:33N 55°15' E 014°25'9 9.1
2016-Jun-23 22:33N 55°10' E 014°11'10 9.6
2016-Jun-23 21:33N 55°10' E 013°54'9 9.4
2016-Jun-23 20:33N 55°12' E 013°38'9 9.2
2016-Jun-23 19:33N 55°13' E 013°22'9 9.1
2016-Jun-23 18:33N 55°14' E 013°06'9 9.1
2016-Jun-23 17:33N 55°15' E 012°50'9 9.0
2016-Jun-23 16:33N 55°19' E 012°36'9 9.1
2016-Jun-23 15:33N 55°25' E 012°24'7 6.6
2016-Jun-23 14:28N 55°27' E 012°12'0 0.0
2016-Jun-23 13:31N 55°27' E 012°12'0 0.0
2016-Jun-23 12:28N 55°27' E 012°12'0 0.0
2016-Jun-23 11:31N 55°27' E 012°12'0 0.0
2016-Jun-23 10:28N 55°27' E 012°12'0 0.0
2016-Jun-23 09:31N 55°27' E 012°12'0 0.0
2016-Jun-23 08:31N 55°27' E 012°12'0 0.0
2016-Jun-23 07:31N 55°27' E 012°12'0 0.0
2016-Jun-23 05:31N 55°27' E 012°12'0 0.0
2016-Jun-23 04:31N 55°27' E 012°12'0 0.0
2016-Jun-23 03:31N 55°27' E 012°12'0 0.0
2016-Jun-23 02:31N 55°27' E 012°12'0 0.4
2016-Jun-23 01:33N 55°27' E 012°12'8 7.6
2016-Jun-23 00:33N 55°29' E 012°25'9 9.2
2016-Jun-22 23:33N 55°31' E 012°41'8 7.7
2016-Jun-22 22:33N 55°39' E 012°41'9 8.5
2016-Jun-22 21:33N 55°48' E 012°41'9 8.6
2016-Jun-22 20:33N 55°56' E 012°38'8 8.0
2016-Jun-22 19:33N 56°04' E 012°37'9 8.9
2016-Jun-22 18:33N 56°09' E 012°24'10 9.5
2016-Jun-22 17:33N 56°14' E 012°09'8 8.1
2016-Jun-22 16:32N 56°21' E 012°02'10 9.1
2016-Jun-22 15:27N 56°31' E 011°57'8 9.1
2016-Jun-22 14:33N 56°39' E 011°54'9 9.1
2016-Jun-22 13:34N 56°47' E 011°50'9 9.5
2016-Jun-22 12:34N 56°56' E 011°44'9 8.8
2016-Jun-22 11:33N 57°05' E 011°39'9 8.5
2016-Jun-22 10:33N 57°13' E 011°34'9 9.1
2016-Jun-22 09:33N 57°21' E 011°28'9 8.9
2016-Jun-22 08:33N 57°29' E 011°19'9 8.9
2016-Jun-22 07:33N 57°33' E 011°04'9 9.3
2016-Jun-22 06:33N 57°37' E 010°48'8 8.3
2016-Jun-22 05:33N 57°42' E 010°36'0 0.1
2016-Jun-22 04:12N 57°42' E 010°36'0 0.0
2016-Jun-22 03:27N 57°42' E 010°36'0 0.2
2016-Jun-22 02:33N 57°42' E 010°36'6 5.6
2016-Jun-22 01:33N 57°47' E 010°40'6510.0
2016-Jun-21 19:06N 57°50' E 008°39'5 9.1
2016-Jun-21 18:33N 57°51' E 008°29'9 9.1
2016-Jun-21 17:33N 57°51' E 008°12'9 9.0
2016-Jun-21 16:32N 57°52' E 007°55'17 8.6
2016-Jun-21 14:31N 57°53' E 007°22'8 8.6
2016-Jun-21 13:33N 57°55' E 007°07'9 8.5
2016-Jun-21 12:33N 57°56' E 006°51'9 8.8
2016-Jun-21 11:33N 57°58' E 006°35'9 8.8
2016-Jun-21 10:33N 58°04' E 006°23'9 8.7
2016-Jun-21 09:33N 58°10' E 006°11'9 8.6
2016-Jun-21 08:33N 58°16' E 005°59'9 9.1
2016-Jun-21 07:33N 58°22' E 005°47'18 9.3
2016-Jun-21 05:33N 58°37' E 005°26'9 8.9
2016-Jun-21 04:33N 58°45' E 005°17'9 8.8
2016-Jun-21 03:33N 58°52' E 005°07'9 8.5
2016-Jun-21 02:33N 58°60' E 004°60'8 8.4
2016-Jun-21 01:33N 59°07' E 004°51'8 8.0
2016-Jun-21 00:33N 59°14' E 004°43'  
2016-Jun-16 21:23N 59°07' E 004°33'810.0
2016-Jun-16 20:34N 59°06' E 004°49'1110.6
2016-Jun-16 19:34N 59°07' E 005°10'8 8.4
2016-Jun-16 18:34N 59°13' E 005°21'3 3.0
2016-Jun-16 17:31N 59°14' E 005°27'0 0.0
2016-Jun-16 16:31N 59°14' E 005°27'0 0.0
2016-Jun-16 15:31N 59°14' E 005°27'0 0.0
2016-Jun-16 14:31N 59°14' E 005°27'0 0.0
2016-Jun-16 13:31N 59°14' E 005°27'0 0.0
2016-Jun-16 12:31N 59°14' E 005°27'0 0.0
2016-Jun-16 11:31N 59°14' E 005°27'0 0.0
2016-Jun-16 10:31N 59°14' E 005°27'0 0.0
2016-Jun-16 09:31N 59°14' E 005°27'0 0.0
2016-Jun-16 08:31N 59°14' E 005°27'0 0.0
2016-Jun-16 07:31N 59°14' E 005°27'0 0.0
2016-Jun-16 06:31N 59°14' E 005°27'0 0.0
2016-Jun-16 05:31N 59°14' E 005°27'0 0.0
2016-Jun-16 04:31N 59°14' E 005°27'0 0.0
2016-Jun-16 03:31N 59°14' E 005°27'0 0.0
2016-Jun-16 02:31N 59°14' E 005°27'0 0.0
2016-Jun-16 01:31N 59°14' E 005°27'0 0.0
2016-Jun-16 00:31N 59°14' E 005°27'0 0.0
2016-Jun-15 23:31N 59°14' E 005°27'0 0.0
2016-Jun-15 22:31N 59°14' E 005°27'0 0.0
2016-Jun-15 21:31N 59°14' E 005°27'0 0.0
2016-Jun-15 20:31N 59°14' E 005°27'0 0.0
2016-Jun-15 19:31N 59°14' E 005°27'0 0.0
2016-Jun-15 18:31N 59°14' E 005°27'0 0.0
2016-Jun-15 17:31N 59°14' E 005°27'0 0.0
2016-Jun-15 16:31N 59°14' E 005°27'0 0.0
2016-Jun-15 15:31N 59°14' E 005°27'0 0.0
2016-Jun-15 14:31N 59°14' E 005°27'0 0.0
2016-Jun-15 13:31N 59°14' E 005°27'0 0.0
2016-Jun-15 12:31N 59°14' E 005°27'0 0.0
2016-Jun-15 11:31N 59°14' E 005°27'0 0.0
2016-Jun-15 10:31N 59°14' E 005°27'0 0.0
2016-Jun-15 09:31N 59°14' E 005°27'0 0.0
2016-Jun-15 08:31N 59°14' E 005°27'0 0.0
2016-Jun-15 07:31N 59°14' E 005°27'0 0.0
2016-Jun-15 06:31N 59°14' E 005°27'0 0.0
2016-Jun-15 05:31N 59°14' E 005°27'0 0.0
2016-Jun-15 04:31N 59°14' E 005°27'0 0.0
2016-Jun-15 03:31N 59°14' E 005°27'0 0.0
2016-Jun-15 02:31N 59°14' E 005°27'0 0.0
2016-Jun-15 01:31N 59°14' E 005°27'0 0.0
2016-Jun-15 00:31N 59°14' E 005°27'0 0.0
2016-Jun-14 23:28N 59°14' E 005°27'0 0.0
2016-Jun-14 22:31N 59°14' E 005°27'0 0.0
2016-Jun-14 21:31N 59°14' E 005°27'0 0.0
2016-Jun-14 20:31N 59°14' E 005°27'0 0.0
2016-Jun-14 19:31N 59°14' E 005°27'0 0.0
2016-Jun-14 18:31N 59°14' E 005°27'0 0.0
2016-Jun-14 17:31N 59°14' E 005°27'0 0.0
2016-Jun-14 16:31N 59°14' E 005°27'0 0.0
2016-Jun-14 15:31N 59°14' E 005°27'0 0.0
2016-Jun-14 14:31N 59°14' E 005°27'0 0.0
2016-Jun-14 13:31N 59°14' E 005°27'0 0.0
2016-Jun-14 12:31N 59°14' E 005°27'0 0.0
2016-Jun-14 11:31N 59°14' E 005°27'  

Dump ship's entire track history